Terminal Aerodrome Forecast
Issued by NWS

Home | Current Version | Previous Version | Text Only | Print | Product List | Glossary On
Versions: 1 2 3 4 5 6 7 8 9 10 11 12
000
FTAK31 PAFA 270540
TAFAOR
TAF
PAOR 270540Z 2706/2806 11005KT P6SM VCSH SCT050 BKN130
     FM270900 VRB03KT P6SM FEW050 BKN130
     FM272000 13005KT P6SM VCTS SCT070CB SCT100=

USA.gov is the U.S. government's official web portal to all federal, state and local government web resources and services.